Flight Track Log - Related Links

Times and Time Zones

All times are in EDT time to prevent confusion due to time zone crossing. See the N9AP flight status page for this flight to view local times or setup timezone preferences in your user account.

Time Position Orientation Groundspeed Altitude Reporting Facility
EDT Latitude Longitude Course Direction KTS MPH feet Rate Location/Type
Mon 07:10:12 AM 42.2278 -78.4464 260° West 165 190 3,700  Level Cleveland Center
Mon 07:11:12 AM 42.2222 -78.4886 259° West 142 163 4,600 850 Climbing Cleveland Center
Mon 07:12:12 AM 42.2167 -78.5281 253° West 114 131 5,400 650 Climbing Cleveland Center
Mon 07:13:12 AM 42.2072 -78.5706 254° West 114 131 5,900 250 Climbing Cleveland Center
Mon 07:14:12 AM 42.1994 -78.6072 257° West 114 131 5,900  Level Cleveland Center
Mon 07:15:12 AM 42.1900 -78.6608 251° West 127 146 5,900  Level Cleveland Center
Mon 07:16:12 AM 42.1781 -78.7086 256° West 139 160 5,900  Level Cleveland Center
Mon 07:17:12 AM 42.1686 -78.7594 253° West 146 168 5,900  Level Cleveland Center
Mon 07:18:12 AM 42.1569 -78.8103 252° West 146 168 5,900  Level Cleveland Center
Mon 07:19:12 AM 42.1450 -78.8608 250° West 146 168 5,900  Level Cleveland Center
Mon 07:20:12 AM 42.1314 -78.9117 255° West 146 168 5,900  Level Cleveland Center
Mon 07:54:04 AM 41.7494 -80.6917 248° West 146 168 5,900  Level Cleveland Center
Mon 07:55:17 AM 41.7306 -80.7528 247° West 148 170 5,900  Level Cleveland Center
Mon 07:56:17 AM 41.7158 -80.8000 244° Southwest 148 170 5,900  Level Cleveland Center
Mon 07:57:18 AM 41.6969 -80.8528 246° West 146 168 5,900  Level Cleveland Center
Mon 07:58:19 AM 41.6803 -80.9028 252° West 147 169 5,900 -99 Level Cleveland Center
Mon 07:59:19 AM 41.6675 -80.9556 252° West 147 169 5,700 -545 Descending Cleveland Center
Mon 08:00:20 AM 41.6528 -81.0167 251° West 178 205 4,800 -738 Descending Cleveland Center
Mon 08:01:21 AM 41.6378 -81.0750 260° West 170 196 4,200 -397 Descending Cleveland Center
Mon 08:02:21 AM 41.6292 -81.1386 258° West 162 186 4,000 -149 Descending Cleveland Center
Mon 08:03:22 AM 41.6206 -81.1942 258° West 154 177 3,900 -50 Descending Cleveland Center
Mon 08:04:22 AM 41.6119 -81.2469 258° West 149 171 3,900  Level Cleveland Center
Mon 08:05:23 AM 41.6033 -81.3022 260° West 148 170 3,900  Level Cleveland Center
Mon 08:06:24 AM 41.5967 -81.3550 261° West 149 171 3,900 -446 Level Cleveland Center
Mon 08:07:24 AM 41.5900 -81.4133 267° West 166 191 3,000 -595 Descending Cleveland Center
Mon 08:08:25 AM 41.5875 -81.4714 270° West 159 183 2,700 -344 Descending Cleveland Center
Mon 08:09:26 AM 41.5872 -81.5297 253° West 155 178 2,300 -298 Descending Cleveland Center
Mon 08:10:26 AM 41.5742 -81.5878 252° West 152 175 2,100 -99 Descending Cleveland Center
Mon 08:11:27 AM 41.5633 -81.6322 251° West 136 157 2,100  Level Cleveland Center
Mon 08:12:28 AM 41.5525 -81.6736 239° Southwest 116 133 2,100 -50 Level Cleveland Center
Mon 08:13:28 AM 41.5353 -81.7122 211° Southwest 108 124 2,000 -397 Descending Cleveland Center
Mon 08:14:29 AM 41.5186 -81.7256 211° Southwest 85 98 1,300 -689 Descending Cleveland Center

Login

Don't have an account? Register now (free) for customized features, flight alerts, and more!